sensor_id;sensor_type;location;lat;lon;timestamp;temperature;humidity
18930;DHT22;43305;52.186;5.598;2022-08-21T00:01:38;15.10;99.90
18930;DHT22;43305;52.186;5.598;2022-08-21T00:04:05;15.10;99.90
18930;DHT22;43305;52.186;5.598;2022-08-21T00:06:35;15.00;99.90
18930;DHT22;43305;52.186;5.598;2022-08-21T00:09:04;15.00;99.90
18930;DHT22;43305;52.186;5.598;2022-08-21T00:11:33;15.00;99.90
18930;DHT22;43305;52.186;5.598;2022-08-21T00:14:01;15.00;99.90
18930;DHT22;43305;52.186;5.598;2022-08-21T00:16:28;15.00;99.90
18930;DHT22;43305;52.186;5.598;2022-08-21T00:18:55;15.00;99.90
18930;DHT22;43305;52.186;5.598;2022-08-21T00:21:22;15.00;99.90
18930;DHT22;43305;52.186;5.598;2022-08-21T00:23:52;15.00;99.90
18930;DHT22;43305;52.186;5.598;2022-08-21T00:26:19;15.00;99.90
18930;DHT22;43305;52.186;5.598;2022-08-21T00:28:46;14.90;99.90
18930;DHT22;43305;52.186;5.598;2022-08-21T00:31:14;14.90;99.90
18930;DHT22;43305;52.186;5.598;2022-08-21T00:33:41;14.90;99.90
18930;DHT22;43305;52.186;5.598;2022-08-21T00:36:08;14.80;99.90
18930;DHT22;43305;52.186;5.598;2022-08-21T00:38:36;14.90;99.90
18930;DHT22;43305;52.186;5.598;2022-08-21T00:41:07;14.80;99.90
18930;DHT22;43305;52.186;5.598;2022-08-21T00:43:35;14.80;99.90
18930;DHT22;43305;52.186;5.598;2022-08-21T00:46:04;14.80;99.90
18930;DHT22;43305;52.186;5.598;2022-08-21T00:48:31;14.70;99.90
18930;DHT22;43305;52.186;5.598;2022-08-21T00:51:05;14.60;99.90
18930;DHT22;43305;52.186;5.598;2022-08-21T00:53:35;14.60;99.90
18930;DHT22;43305;52.186;5.598;2022-08-21T00:56:04;14.60;99.90
18930;DHT22;43305;52.186;5.598;2022-08-21T00:58:31;14.60;99.90
18930;DHT22;43305;52.186;5.598;2022-08-21T01:01:03;14.60;99.90
18930;DHT22;43305;52.186;5.598;2022-08-21T01:03:30;14.60;99.90
18930;DHT22;43305;52.186;5.598;2022-08-21T01:05:57;14.60;99.90
18930;DHT22;43305;52.186;5.598;2022-08-21T01:08:24;14.60;99.90
18930;DHT22;43305;52.186;5.598;2022-08-21T01:10:53;14.60;99.90
18930;DHT22;43305;52.186;5.598;2022-08-21T01:13:22;14.60;99.90
18930;DHT22;43305;52.186;5.598;2022-08-21T01:15:51;14.60;99.90
18930;DHT22;43305;52.186;5.598;2022-08-21T01:18:20;14.50;99.90
18930;DHT22;43305;52.186;5.598;2022-08-21T01:21:05;14.50;99.90
18930;DHT22;43305;52.186;5.598;2022-08-21T01:23:34;14.40;99.90
18930;DHT22;43305;52.186;5.598;2022-08-21T01:26:01;14.40;99.90
18930;DHT22;43305;52.186;5.598;2022-08-21T01:28:37;14.40;99.90
18930;DHT22;43305;52.186;5.598;2022-08-21T01:31:06;14.40;99.90
18930;DHT22;43305;52.186;5.598;2022-08-21T01:33:34;14.40;99.90
18930;DHT22;43305;52.186;5.598;2022-08-21T01:36:00;14.40;99.90
18930;DHT22;43305;52.186;5.598;2022-08-21T01:38:29;14.40;99.90
18930;DHT22;43305;52.186;5.598;2022-08-21T01:40:56;14.40;99.90
18930;DHT22;43305;52.186;5.598;2022-08-21T01:43:23;14.40;99.90
18930;DHT22;43305;52.186;5.598;2022-08-21T01:45:50;14.40;99.90
18930;DHT22;43305;52.186;5.598;2022-08-21T01:48:16;14.30;99.90
18930;DHT22;43305;52.186;5.598;2022-08-21T01:50:43;14.30;99.90
18930;DHT22;43305;52.186;5.598;2022-08-21T01:53:10;14.30;99.90
18930;DHT22;43305;52.186;5.598;2022-08-21T01:55:38;14.30;99.90
18930;DHT22;43305;52.186;5.598;2022-08-21T01:58:05;14.30;99.90
18930;DHT22;43305;52.186;5.598;2022-08-21T02:00:32;14.30;99.90
18930;DHT22;43305;52.186;5.598;2022-08-21T02:02:58;14.30;99.90
18930;DHT22;43305;52.186;5.598;2022-08-21T02:05:25;14.20;99.90
18930;DHT22;43305;52.186;5.598;2022-08-21T02:07:55;14.30;99.90
18930;DHT22;43305;52.186;5.598;2022-08-21T02:10:25;14.30;99.90
18930;DHT22;43305;52.186;5.598;2022-08-21T02:12:53;14.30;99.90
18930;DHT22;43305;52.186;5.598;2022-08-21T02:15:20;14.20;99.90
18930;DHT22;43305;52.186;5.598;2022-08-21T02:17:51;14.20;99.90
18930;DHT22;43305;52.186;5.598;2022-08-21T02:20:22;14.20;99.90
18930;DHT22;43305;52.186;5.598;2022-08-21T02:22:49;14.20;99.90
18930;DHT22;43305;52.186;5.598;2022-08-21T02:25:17;14.20;99.90
18930;DHT22;43305;52.186;5.598;2022-08-21T02:27:46;14.20;99.90
18930;DHT22;43305;52.186;5.598;2022-08-21T02:30:16;14.20;99.90
18930;DHT22;43305;52.186;5.598;2022-08-21T02:32:43;14.20;99.90
18930;DHT22;43305;52.186;5.598;2022-08-21T02:35:11;14.10;99.90
18930;DHT22;43305;52.186;5.598;2022-08-21T02:37:49;14.10;99.90
18930;DHT22;43305;52.186;5.598;2022-08-21T02:40:22;14.10;99.90
18930;DHT22;43305;52.186;5.598;2022-08-21T02:42:49;14.00;99.90
18930;DHT22;43305;52.186;5.598;2022-08-21T02:45:19;14.10;99.90
18930;DHT22;43305;52.186;5.598;2022-08-21T02:47:48;14.10;99.90
18930;DHT22;43305;52.186;5.598;2022-08-21T02:50:18;14.10;99.90
18930;DHT22;43305;52.186;5.598;2022-08-21T02:52:46;14.10;99.90
18930;DHT22;43305;52.186;5.598;2022-08-21T02:55:13;14.00;99.90
18930;DHT22;43305;52.186;5.598;2022-08-21T02:57:40;14.00;99.90
18930;DHT22;43305;52.186;5.598;2022-08-21T03:00:08;14.00;99.90
18930;DHT22;43305;52.186;5.598;2022-08-21T03:02:37;14.00;99.90
18930;DHT22;43305;52.186;5.598;2022-08-21T03:05:05;14.00;99.90
18930;DHT22;43305;52.186;5.598;2022-08-21T03:07:35;14.10;99.90
18930;DHT22;43305;52.186;5.598;2022-08-21T03:10:03;14.00;99.90
18930;DHT22;43305;52.186;5.598;2022-08-21T03:12:33;14.00;99.90
18930;DHT22;43305;52.186;5.598;2022-08-21T03:15:05;14.00;99.90
18930;DHT22;43305;52.186;5.598;2022-08-21T03:17:37;14.00;99.90
18930;DHT22;43305;52.186;5.598;2022-08-21T03:20:05;14.00;99.90
18930;DHT22;43305;52.186;5.598;2022-08-21T03:22:32;14.00;99.90
18930;DHT22;43305;52.186;5.598;2022-08-21T03:24:59;14.00;99.90
18930;DHT22;43305;52.186;5.598;2022-08-21T03:27:28;13.90;99.90
18930;DHT22;43305;52.186;5.598;2022-08-21T03:29:57;13.90;99.90
18930;DHT22;43305;52.186;5.598;2022-08-21T03:32:27;13.90;99.90
18930;DHT22;43305;52.186;5.598;2022-08-21T03:34:55;13.90;99.90
18930;DHT22;43305;52.186;5.598;2022-08-21T03:37:23;13.90;99.90
18930;DHT22;43305;52.186;5.598;2022-08-21T03:39:51;13.90;99.90
18930;DHT22;43305;52.186;5.598;2022-08-21T03:42:17;13.80;99.90
18930;DHT22;43305;52.186;5.598;2022-08-21T03:44:44;13.80;99.90
18930;DHT22;43305;52.186;5.598;2022-08-21T03:47:14;13.80;99.90
18930;DHT22;43305;52.186;5.598;2022-08-21T03:49:41;13.80;99.90
18930;DHT22;43305;52.186;5.598;2022-08-21T03:52:10;13.80;99.90
18930;DHT22;43305;52.186;5.598;2022-08-21T03:54:37;13.80;99.90
18930;DHT22;43305;52.186;5.598;2022-08-21T03:57:05;13.80;99.90
18930;DHT22;43305;52.186;5.598;2022-08-21T03:59:32;13.80;99.90
18930;DHT22;43305;52.186;5.598;2022-08-21T04:02:04;13.80;99.90
18930;DHT22;43305;52.186;5.598;2022-08-21T04:04:32;13.70;99.90
18930;DHT22;43305;52.186;5.598;2022-08-21T04:06:59;13.80;99.90
18930;DHT22;43305;52.186;5.598;2022-08-21T04:09:30;13.80;99.90
18930;DHT22;43305;52.186;5.598;2022-08-21T04:12:00;13.80;99.90
18930;DHT22;43305;52.186;5.598;2022-08-21T04:14:28;13.70;99.90
18930;DHT22;43305;52.186;5.598;2022-08-21T04:16:55;13.70;99.90
18930;DHT22;43305;52.186;5.598;2022-08-21T04:19:22;13.70;99.90
18930;DHT22;43305;52.186;5.598;2022-08-21T04:21:49;13.70;99.90
18930;DHT22;43305;52.186;5.598;2022-08-21T04:24:17;13.70;99.90
18930;DHT22;43305;52.186;5.598;2022-08-21T04:26:55;13.70;99.90
18930;DHT22;43305;52.186;5.598;2022-08-21T04:29:22;13.70;99.90
18930;DHT22;43305;52.186;5.598;2022-08-21T04:31:49;13.70;99.90
18930;DHT22;43305;52.186;5.598;2022-08-21T04:34:17;13.70;99.90
18930;DHT22;43305;52.186;5.598;2022-08-21T04:36:44;13.70;99.90
18930;DHT22;43305;52.186;5.598;2022-08-21T04:39:11;13.70;99.90
18930;DHT22;43305;52.186;5.598;2022-08-21T04:41:38;13.70;99.90
18930;DHT22;43305;52.186;5.598;2022-08-21T04:44:09;13.70;99.90
18930;DHT22;43305;52.186;5.598;2022-08-21T04:46:36;13.70;99.90
18930;DHT22;43305;52.186;5.598;2022-08-21T04:49:03;13.70;99.90
18930;DHT22;43305;52.186;5.598;2022-08-21T04:51:33;13.70;99.90
18930;DHT22;43305;52.186;5.598;2022-08-21T04:54:06;13.70;99.90
18930;DHT22;43305;52.186;5.598;2022-08-21T04:56:38;13.70;99.90
18930;DHT22;43305;52.186;5.598;2022-08-21T04:59:13;13.70;99.90
18930;DHT22;43305;52.186;5.598;2022-08-21T05:01:42;13.70;99.90
18930;DHT22;43305;52.186;5.598;2022-08-21T05:04:11;13.70;99.90
18930;DHT22;43305;52.186;5.598;2022-08-21T05:06:41;13.70;99.90
18930;DHT22;43305;52.186;5.598;2022-08-21T05:09:14;13.70;99.90
18930;DHT22;43305;52.186;5.598;2022-08-21T05:11:41;13.70;99.90
18930;DHT22;43305;52.186;5.598;2022-08-21T05:14:09;13.80;99.90
18930;DHT22;43305;52.186;5.598;2022-08-21T05:16:38;13.80;99.90
18930;DHT22;43305;52.186;5.598;2022-08-21T05:19:07;13.80;99.90
18930;DHT22;43305;52.186;5.598;2022-08-21T05:21:35;13.80;99.90
18930;DHT22;43305;52.186;5.598;2022-08-21T05:24:04;13.90;99.90
18930;DHT22;43305;52.186;5.598;2022-08-21T05:26:31;13.90;99.90
18930;DHT22;43305;52.186;5.598;2022-08-21T05:28:58;14.00;99.90
18930;DHT22;43305;52.186;5.598;2022-08-21T05:31:25;14.00;99.90
18930;DHT22;43305;52.186;5.598;2022-08-21T05:33:53;14.00;99.90
18930;DHT22;43305;52.186;5.598;2022-08-21T05:36:20;14.10;99.90
18930;DHT22;43305;52.186;5.598;2022-08-21T05:38:47;14.10;99.90
18930;DHT22;43305;52.186;5.598;2022-08-21T05:41:14;14.20;99.90
18930;DHT22;43305;52.186;5.598;2022-08-21T05:43:41;14.30;99.90
18930;DHT22;43305;52.186;5.598;2022-08-21T05:46:08;14.30;99.90
18930;DHT22;43305;52.186;5.598;2022-08-21T05:48:35;14.30;99.90
18930;DHT22;43305;52.186;5.598;2022-08-21T05:51:07;14.40;99.90
18930;DHT22;43305;52.186;5.598;2022-08-21T05:53:35;14.50;99.90
18930;DHT22;43305;52.186;5.598;2022-08-21T05:56:03;14.60;99.90
18930;DHT22;43305;52.186;5.598;2022-08-21T05:58:32;14.70;99.90
18930;DHT22;43305;52.186;5.598;2022-08-21T06:00:59;14.70;99.90
18930;DHT22;43305;52.186;5.598;2022-08-21T06:03:29;14.80;99.90
18930;DHT22;43305;52.186;5.598;2022-08-21T06:05:57;15.00;99.90
18930;DHT22;43305;52.186;5.598;2022-08-21T06:08:28;15.10;99.90
18930;DHT22;43305;52.186;5.598;2022-08-21T06:10:57;15.10;99.90
18930;DHT22;43305;52.186;5.598;2022-08-21T06:13:25;15.20;99.90
18930;DHT22;43305;52.186;5.598;2022-08-21T06:16:01;15.30;99.90
18930;DHT22;43305;52.186;5.598;2022-08-21T06:18:28;15.40;99.90
18930;DHT22;43305;52.186;5.598;2022-08-21T06:20:55;15.50;99.90
18930;DHT22;43305;52.186;5.598;2022-08-21T06:23:22;15.60;99.90
18930;DHT22;43305;52.186;5.598;2022-08-21T06:25:53;15.60;99.90
18930;DHT22;43305;52.186;5.598;2022-08-21T06:28:20;15.70;99.90
18930;DHT22;43305;52.186;5.598;2022-08-21T06:30:47;15.70;99.90
18930;DHT22;43305;52.186;5.598;2022-08-21T06:33:14;15.90;99.90
18930;DHT22;43305;52.186;5.598;2022-08-21T06:35:41;15.90;99.90
18930;DHT22;43305;52.186;5.598;2022-08-21T06:38:09;16.00;99.90
18930;DHT22;43305;52.186;5.598;2022-08-21T06:40:36;16.10;99.90
18930;DHT22;43305;52.186;5.598;2022-08-21T06:43:09;16.10;99.90
18930;DHT22;43305;52.186;5.598;2022-08-21T06:45:37;16.20;99.90
18930;DHT22;43305;52.186;5.598;2022-08-21T06:48:04;16.30;99.90
18930;DHT22;43305;52.186;5.598;2022-08-21T06:50:32;16.40;99.90
18930;DHT22;43305;52.186;5.598;2022-08-21T06:53:01;16.50;99.90
18930;DHT22;43305;52.186;5.598;2022-08-21T06:55:28;16.60;99.90
18930;DHT22;43305;52.186;5.598;2022-08-21T06:57:57;16.70;99.90
18930;DHT22;43305;52.186;5.598;2022-08-21T07:00:25;16.80;99.90
18930;DHT22;43305;52.186;5.598;2022-08-21T07:02:52;16.90;99.90
18930;DHT22;43305;52.186;5.598;2022-08-21T07:05:19;17.00;99.90
18930;DHT22;43305;52.186;5.598;2022-08-21T07:07:46;17.10;99.90
18930;DHT22;43305;52.186;5.598;2022-08-21T07:10:13;17.30;99.90
18930;DHT22;43305;52.186;5.598;2022-08-21T07:12:40;17.40;99.90
18930;DHT22;43305;52.186;5.598;2022-08-21T07:15:08;17.50;99.90
18930;DHT22;43305;52.186;5.598;2022-08-21T07:17:36;17.60;99.90
18930;DHT22;43305;52.186;5.598;2022-08-21T07:20:03;17.60;99.90
18930;DHT22;43305;52.186;5.598;2022-08-21T07:22:30;17.70;99.90
18930;DHT22;43305;52.186;5.598;2022-08-21T07:24:58;17.80;99.90
18930;DHT22;43305;52.186;5.598;2022-08-21T07:27:25;18.00;99.90
18930;DHT22;43305;52.186;5.598;2022-08-21T07:29:52;18.20;99.90
18930;DHT22;43305;52.186;5.598;2022-08-21T07:32:19;18.30;99.90
18930;DHT22;43305;52.186;5.598;2022-08-21T07:34:48;18.30;99.90
18930;DHT22;43305;52.186;5.598;2022-08-21T07:37:15;18.30;99.90
18930;DHT22;43305;52.186;5.598;2022-08-21T07:39:42;18.50;99.90
18930;DHT22;43305;52.186;5.598;2022-08-21T07:42:09;18.70;99.90
18930;DHT22;43305;52.186;5.598;2022-08-21T07:44:36;18.80;99.90
18930;DHT22;43305;52.186;5.598;2022-08-21T07:47:03;18.60;99.90
18930;DHT22;43305;52.186;5.598;2022-08-21T07:49:30;18.50;99.90
18930;DHT22;43305;52.186;5.598;2022-08-21T07:51:58;18.60;99.90
18930;DHT22;43305;52.186;5.598;2022-08-21T07:54:25;18.80;99.90
18930;DHT22;43305;52.186;5.598;2022-08-21T07:56:52;18.90;99.90
18930;DHT22;43305;52.186;5.598;2022-08-21T07:59:18;19.00;99.90
18930;DHT22;43305;52.186;5.598;2022-08-21T08:01:45;19.20;99.90
18930;DHT22;43305;52.186;5.598;2022-08-21T08:04:12;19.40;99.90
18930;DHT22;43305;52.186;5.598;2022-08-21T08:06:40;19.40;99.90
18930;DHT22;43305;52.186;5.598;2022-08-21T08:09:09;19.60;99.90
18930;DHT22;43305;52.186;5.598;2022-08-21T08:11:37;19.80;99.90
18930;DHT22;43305;52.186;5.598;2022-08-21T08:14:05;19.90;99.90
18930;DHT22;43305;52.186;5.598;2022-08-21T08:16:32;19.90;99.90
18930;DHT22;43305;52.186;5.598;2022-08-21T08:18:58;19.90;99.90
18930;DHT22;43305;52.186;5.598;2022-08-21T08:21:25;20.00;99.90
18930;DHT22;43305;52.186;5.598;2022-08-21T08:23:53;20.10;99.90
18930;DHT22;43305;52.186;5.598;2022-08-21T08:26:21;20.00;99.90
18930;DHT22;43305;52.186;5.598;2022-08-21T08:28:48;20.10;99.90
18930;DHT22;43305;52.186;5.598;2022-08-21T08:31:14;20.20;99.90
18930;DHT22;43305;52.186;5.598;2022-08-21T08:33:42;20.20;99.90
18930;DHT22;43305;52.186;5.598;2022-08-21T08:36:14;20.30;99.90
18930;DHT22;43305;52.186;5.598;2022-08-21T08:38:41;20.40;99.90
18930;DHT22;43305;52.186;5.598;2022-08-21T08:41:12;20.40;99.90
18930;DHT22;43305;52.186;5.598;2022-08-21T08:43:44;20.50;99.90
18930;DHT22;43305;52.186;5.598;2022-08-21T08:46:18;20.60;99.90
18930;DHT22;43305;52.186;5.598;2022-08-21T08:48:51;20.70;99.90
18930;DHT22;43305;52.186;5.598;2022-08-21T08:51:22;20.90;99.90
18930;DHT22;43305;52.186;5.598;2022-08-21T08:53:52;21.00;99.90
18930;DHT22;43305;52.186;5.598;2022-08-21T08:56:26;21.00;99.90
18930;DHT22;43305;52.186;5.598;2022-08-21T08:58:58;21.00;99.90
18930;DHT22;43305;52.186;5.598;2022-08-21T09:01:29;21.00;99.90
18930;DHT22;43305;52.186;5.598;2022-08-21T09:03:56;21.00;99.90
18930;DHT22;43305;52.186;5.598;2022-08-21T09:06:37;20.90;99.90
18930;DHT22;43305;52.186;5.598;2022-08-21T09:09:15;20.70;99.90
18930;DHT22;43305;52.186;5.598;2022-08-21T09:11:56;20.50;99.90
18930;DHT22;43305;52.186;5.598;2022-08-21T09:14:41;20.40;99.90
18930;DHT22;43305;52.186;5.598;2022-08-21T09:17:19;20.60;99.90
18930;DHT22;43305;52.186;5.598;2022-08-21T09:19:59;20.80;99.90
18930;DHT22;43305;52.186;5.598;2022-08-21T09:22:37;20.80;99.90
18930;DHT22;43305;52.186;5.598;2022-08-21T09:25:12;20.80;99.90
18930;DHT22;43305;52.186;5.598;2022-08-21T09:27:41;20.80;99.90
18930;DHT22;43305;52.186;5.598;2022-08-21T09:30:10;21.00;99.90
18930;DHT22;43305;52.186;5.598;2022-08-21T09:32:38;21.30;99.90
18930;DHT22;43305;52.186;5.598;2022-08-21T09:35:08;21.50;99.90
18930;DHT22;43305;52.186;5.598;2022-08-21T09:37:46;21.60;99.90
18930;DHT22;43305;52.186;5.598;2022-08-21T09:40:23;21.60;99.90
18930;DHT22;43305;52.186;5.598;2022-08-21T09:42:58;21.70;99.90
18930;DHT22;43305;52.186;5.598;2022-08-21T09:45:27;21.60;99.90
18930;DHT22;43305;52.186;5.598;2022-08-21T09:47:54;21.50;99.90
18930;DHT22;43305;52.186;5.598;2022-08-21T09:50:23;21.50;99.90
18930;DHT22;43305;52.186;5.598;2022-08-21T09:52:51;21.80;99.90
18930;DHT22;43305;52.186;5.598;2022-08-21T09:55:28;22.00;99.90
18930;DHT22;43305;52.186;5.598;2022-08-21T09:58:10;22.30;99.90
18930;DHT22;43305;52.186;5.598;2022-08-21T10:00:41;22.40;99.90
18930;DHT22;43305;52.186;5.598;2022-08-21T10:03:11;22.60;99.90
18930;DHT22;43305;52.186;5.598;2022-08-21T10:05:39;22.50;99.90
18930;DHT22;43305;52.186;5.598;2022-08-21T10:08:17;22.50;99.90
18930;DHT22;43305;52.186;5.598;2022-08-21T10:10:44;22.30;99.90
18930;DHT22;43305;52.186;5.598;2022-08-21T10:13:15;22.10;99.90
18930;DHT22;43305;52.186;5.598;2022-08-21T10:15:58;22.10;99.90
18930;DHT22;43305;52.186;5.598;2022-08-21T10:18:35;22.20;99.90
18930;DHT22;43305;52.186;5.598;2022-08-21T10:21:10;22.40;99.90
18930;DHT22;43305;52.186;5.598;2022-08-21T10:23:49;22.70;99.90
18930;DHT22;43305;52.186;5.598;2022-08-21T10:26:26;22.80;99.90
18930;DHT22;43305;52.186;5.598;2022-08-21T10:29:02;22.90;99.90
18930;DHT22;43305;52.186;5.598;2022-08-21T10:31:38;23.00;99.90
18930;DHT22;43305;52.186;5.598;2022-08-21T10:34:17;23.00;99.90
18930;DHT22;43305;52.186;5.598;2022-08-21T10:36:57;22.90;99.90
18930;DHT22;43305;52.186;5.598;2022-08-21T10:39:33;23.00;99.90
18930;DHT22;43305;52.186;5.598;2022-08-21T10:42:13;23.10;99.90
18930;DHT22;43305;52.186;5.598;2022-08-21T10:44:47;23.10;99.90
18930;DHT22;43305;52.186;5.598;2022-08-21T10:47:22;23.10;99.90
18930;DHT22;43305;52.186;5.598;2022-08-21T10:49:57;23.10;99.90
18930;DHT22;43305;52.186;5.598;2022-08-21T10:55:18;23.30;99.90
18930;DHT22;43305;52.186;5.598;2022-08-21T10:57:49;23.20;99.90
18930;DHT22;43305;52.186;5.598;2022-08-21T11:00:19;23.40;99.90
18930;DHT22;43305;52.186;5.598;2022-08-21T11:02:53;23.50;99.90
18930;DHT22;43305;52.186;5.598;2022-08-21T11:05:35;23.40;99.90
18930;DHT22;43305;52.186;5.598;2022-08-21T11:08:08;23.20;99.90
18930;DHT22;43305;52.186;5.598;2022-08-21T11:10:40;23.10;99.90
18930;DHT22;43305;52.186;5.598;2022-08-21T11:13:12;23.10;99.90
18930;DHT22;43305;52.186;5.598;2022-08-21T11:15:44;22.90;99.90
18930;DHT22;43305;52.186;5.598;2022-08-21T11:18:21;22.90;99.90
18930;DHT22;43305;52.186;5.598;2022-08-21T11:20:52;23.00;99.90
18930;DHT22;43305;52.186;5.598;2022-08-21T11:23:28;23.20;99.90
18930;DHT22;43305;52.186;5.598;2022-08-21T11:26:01;23.60;99.90
18930;DHT22;43305;52.186;5.598;2022-08-21T11:28:33;23.70;99.90
18930;DHT22;43305;52.186;5.598;2022-08-21T11:31:09;23.70;99.90
18930;DHT22;43305;52.186;5.598;2022-08-21T11:33:51;23.80;99.90
18930;DHT22;43305;52.186;5.598;2022-08-21T11:36:31;23.80;99.90
18930;DHT22;43305;52.186;5.598;2022-08-21T11:39:04;24.10;99.90
18930;DHT22;43305;52.186;5.598;2022-08-21T11:41:37;24.20;99.90
18930;DHT22;43305;52.186;5.598;2022-08-21T11:44:13;24.00;99.90
18930;DHT22;43305;52.186;5.598;2022-08-21T11:46:47;24.00;99.90
18930;DHT22;43305;52.186;5.598;2022-08-21T11:49:28;23.90;99.90
18930;DHT22;43305;52.186;5.598;2022-08-21T11:52:07;23.90;99.90
18930;DHT22;43305;52.186;5.598;2022-08-21T11:54:38;23.80;99.90
18930;DHT22;43305;52.186;5.598;2022-08-21T11:57:14;24.00;99.90
18930;DHT22;43305;52.186;5.598;2022-08-21T11:59:47;23.90;99.90
18930;DHT22;43305;52.186;5.598;2022-08-21T12:02:19;23.90;99.90
18930;DHT22;43305;52.186;5.598;2022-08-21T12:04:49;23.70;99.90
18930;DHT22;43305;52.186;5.598;2022-08-21T12:07:30;23.70;99.90
18930;DHT22;43305;52.186;5.598;2022-08-21T12:09:57;23.90;99.90
18930;DHT22;43305;52.186;5.598;2022-08-21T12:12:26;23.80;99.90
18930;DHT22;43305;52.186;5.598;2022-08-21T12:15:07;23.70;99.90
18930;DHT22;43305;52.186;5.598;2022-08-21T12:17:40;23.70;99.90
18930;DHT22;43305;52.186;5.598;2022-08-21T12:20:27;23.60;99.90
18930;DHT22;43305;52.186;5.598;2022-08-21T12:23:04;23.40;99.90
18930;DHT22;43305;52.186;5.598;2022-08-21T12:25:37;23.30;99.90
18930;DHT22;43305;52.186;5.598;2022-08-21T12:28:08;23.20;99.90
18930;DHT22;43305;52.186;5.598;2022-08-21T12:30:38;23.20;99.90
18930;DHT22;43305;52.186;5.598;2022-08-21T12:33:21;23.20;99.90
18930;DHT22;43305;52.186;5.598;2022-08-21T12:35:51;23.20;99.90
18930;DHT22;43305;52.186;5.598;2022-08-21T12:38:21;23.10;99.90
18930;DHT22;43305;52.186;5.598;2022-08-21T12:40:53;23.10;99.90
18930;DHT22;43305;52.186;5.598;2022-08-21T12:43:25;22.90;99.90
18930;DHT22;43305;52.186;5.598;2022-08-21T12:45:53;22.90;99.90
18930;DHT22;43305;52.186;5.598;2022-08-21T12:48:23;22.90;99.90
18930;DHT22;43305;52.186;5.598;2022-08-21T12:50:56;23.00;99.90
18930;DHT22;43305;52.186;5.598;2022-08-21T12:53:28;23.40;99.90
18930;DHT22;43305;52.186;5.598;2022-08-21T12:55:55;23.80;99.90
18930;DHT22;43305;52.186;5.598;2022-08-21T12:58:29;24.10;99.90
18930;DHT22;43305;52.186;5.598;2022-08-21T13:01:00;24.30;99.90
18930;DHT22;43305;52.186;5.598;2022-08-21T13:03:28;24.40;99.90
18930;DHT22;43305;52.186;5.598;2022-08-21T13:05:58;24.60;99.90
18930;DHT22;43305;52.186;5.598;2022-08-21T13:08:26;24.60;99.90
18930;DHT22;43305;52.186;5.598;2022-08-21T13:10:59;24.50;99.90
18930;DHT22;43305;52.186;5.598;2022-08-21T13:13:27;24.60;99.90
18930;DHT22;43305;52.186;5.598;2022-08-21T13:15:59;24.80;99.90
18930;DHT22;43305;52.186;5.598;2022-08-21T13:18:30;25.20;99.90
18930;DHT22;43305;52.186;5.598;2022-08-21T13:21:11;25.10;99.90
18930;DHT22;43305;52.186;5.598;2022-08-21T13:23:38;24.80;99.90
18930;DHT22;43305;52.186;5.598;2022-08-21T13:26:12;24.90;99.90
18930;DHT22;43305;52.186;5.598;2022-08-21T13:28:39;25.00;99.90
18930;DHT22;43305;52.186;5.598;2022-08-21T13:31:08;24.80;99.90
18930;DHT22;43305;52.186;5.598;2022-08-21T13:33:37;24.60;99.90
18930;DHT22;43305;52.186;5.598;2022-08-21T13:36:10;24.40;99.90
18930;DHT22;43305;52.186;5.598;2022-08-21T13:38:42;24.20;99.90
18930;DHT22;43305;52.186;5.598;2022-08-21T13:41:23;24.20;99.90
18930;DHT22;43305;52.186;5.598;2022-08-21T13:43:57;24.00;99.90
18930;DHT22;43305;52.186;5.598;2022-08-21T13:46:26;24.10;99.90
18930;DHT22;43305;52.186;5.598;2022-08-21T13:48:54;24.10;99.90
18930;DHT22;43305;52.186;5.598;2022-08-21T13:51:23;24.20;99.90
18930;DHT22;43305;52.186;5.598;2022-08-21T13:53:52;24.30;99.90
18930;DHT22;43305;52.186;5.598;2022-08-21T13:56:24;24.50;99.90
18930;DHT22;43305;52.186;5.598;2022-08-21T13:58:52;24.70;99.90
18930;DHT22;43305;52.186;5.598;2022-08-21T14:01:23;24.60;99.90
18930;DHT22;43305;52.186;5.598;2022-08-21T14:03:54;24.60;99.90
18930;DHT22;43305;52.186;5.598;2022-08-21T14:06:27;24.60;99.90
18930;DHT22;43305;52.186;5.598;2022-08-21T14:08:58;24.50;99.90
18930;DHT22;43305;52.186;5.598;2022-08-21T14:11:26;24.40;99.90
18930;DHT22;43305;52.186;5.598;2022-08-21T14:13:59;24.30;99.90
18930;DHT22;43305;52.186;5.598;2022-08-21T14:16:29;24.30;99.90
18930;DHT22;43305;52.186;5.598;2022-08-21T14:19:10;24.60;99.90
18930;DHT22;43305;52.186;5.598;2022-08-21T14:21:42;24.50;99.90
18930;DHT22;43305;52.186;5.598;2022-08-21T14:24:24;24.40;99.90
18930;DHT22;43305;52.186;5.598;2022-08-21T14:26:53;24.20;99.90
18930;DHT22;43305;52.186;5.598;2022-08-21T14:29:23;24.10;99.90
18930;DHT22;43305;52.186;5.598;2022-08-21T14:31:55;24.00;99.90
18930;DHT22;43305;52.186;5.598;2022-08-21T14:34:22;24.00;99.90
18930;DHT22;43305;52.186;5.598;2022-08-21T14:36:52;24.00;99.90
18930;DHT22;43305;52.186;5.598;2022-08-21T14:39:19;23.90;99.90
18930;DHT22;43305;52.186;5.598;2022-08-21T14:41:47;23.80;99.90
18930;DHT22;43305;52.186;5.598;2022-08-21T14:44:15;23.80;99.90
18930;DHT22;43305;52.186;5.598;2022-08-21T14:46:43;23.70;99.90
18930;DHT22;43305;52.186;5.598;2022-08-21T14:49:10;23.60;99.90
18930;DHT22;43305;52.186;5.598;2022-08-21T14:51:37;23.40;99.90
18930;DHT22;43305;52.186;5.598;2022-08-21T14:54:06;23.30;99.90
18930;DHT22;43305;52.186;5.598;2022-08-21T14:56:33;23.20;99.90
18930;DHT22;43305;52.186;5.598;2022-08-21T14:59:04;23.10;99.90
18930;DHT22;43305;52.186;5.598;2022-08-21T15:01:33;23.00;99.90
18930;DHT22;43305;52.186;5.598;2022-08-21T15:04:00;22.90;99.90
18930;DHT22;43305;52.186;5.598;2022-08-21T15:06:27;22.90;99.90
18930;DHT22;43305;52.186;5.598;2022-08-21T15:08:54;22.90;99.90
18930;DHT22;43305;52.186;5.598;2022-08-21T15:11:24;22.80;99.90
18930;DHT22;43305;52.186;5.598;2022-08-21T15:13:57;22.80;99.90
18930;DHT22;43305;52.186;5.598;2022-08-21T15:16:27;22.80;99.90
18930;DHT22;43305;52.186;5.598;2022-08-21T15:18:54;22.80;99.90
18930;DHT22;43305;52.186;5.598;2022-08-21T15:21:21;22.80;99.90
18930;DHT22;43305;52.186;5.598;2022-08-21T15:23:48;22.80;99.90
18930;DHT22;43305;52.186;5.598;2022-08-21T15:26:18;22.80;99.90
18930;DHT22;43305;52.186;5.598;2022-08-21T15:28:46;22.80;99.90
18930;DHT22;43305;52.186;5.598;2022-08-21T15:31:13;22.80;99.90
18930;DHT22;43305;52.186;5.598;2022-08-21T15:33:40;22.90;99.90
18930;DHT22;43305;52.186;5.598;2022-08-21T15:36:07;22.90;99.90
18930;DHT22;43305;52.186;5.598;2022-08-21T15:38:34;22.90;99.90
18930;DHT22;43305;52.186;5.598;2022-08-21T15:41:02;22.80;99.90
18930;DHT22;43305;52.186;5.598;2022-08-21T15:43:30;22.80;99.90
18930;DHT22;43305;52.186;5.598;2022-08-21T15:46:00;22.60;99.90
18930;DHT22;43305;52.186;5.598;2022-08-21T15:48:29;22.60;99.90
18930;DHT22;43305;52.186;5.598;2022-08-21T15:50:55;22.50;99.90